sensor_id;sensor_type;location;lat;lon;timestamp;temperature;humidity
26655;DHT22;14278;50.784;4.630;2023-03-01T00:01:59;1.30;99.90
26655;DHT22;14278;50.784;4.630;2023-03-01T00:04:25;1.40;99.90
26655;DHT22;14278;50.784;4.630;2023-03-01T00:06:50;1.40;99.90
26655;DHT22;14278;50.784;4.630;2023-03-01T00:09:17;1.30;99.90
26655;DHT22;14278;50.784;4.630;2023-03-01T00:11:43;1.00;99.90
26655;DHT22;14278;50.784;4.630;2023-03-01T00:14:10;1.10;99.90
26655;DHT22;14278;50.784;4.630;2023-03-01T00:16:38;1.00;99.90
26655;DHT22;14278;50.784;4.630;2023-03-01T00:19:05;0.80;99.90
26655;DHT22;14278;50.784;4.630;2023-03-01T00:21:32;1.30;99.90
26655;DHT22;14278;50.784;4.630;2023-03-01T00:24:01;1.50;99.90
26655;DHT22;14278;50.784;4.630;2023-03-01T00:26:27;1.30;99.90
26655;DHT22;14278;50.784;4.630;2023-03-01T00:28:54;1.30;99.90
26655;DHT22;14278;50.784;4.630;2023-03-01T00:31:25;1.30;99.90
26655;DHT22;14278;50.784;4.630;2023-03-01T00:33:55;1.10;99.90
26655;DHT22;14278;50.784;4.630;2023-03-01T00:36:24;1.10;99.90
26655;DHT22;14278;50.784;4.630;2023-03-01T00:38:51;1.30;99.90
26655;DHT22;14278;50.784;4.630;2023-03-01T00:41:18;1.40;99.90
26655;DHT22;14278;50.784;4.630;2023-03-01T00:43:45;1.30;99.90
26655;DHT22;14278;50.784;4.630;2023-03-01T00:46:14;1.10;99.90
26655;DHT22;14278;50.784;4.630;2023-03-01T00:48:41;0.90;99.90
26655;DHT22;14278;50.784;4.630;2023-03-01T00:51:13;1.20;99.90
26655;DHT22;14278;50.784;4.630;2023-03-01T00:53:40;1.40;99.90
26655;DHT22;14278;50.784;4.630;2023-03-01T00:56:07;1.50;99.90
26655;DHT22;14278;50.784;4.630;2023-03-01T00:58:34;1.40;99.90
26655;DHT22;14278;50.784;4.630;2023-03-01T01:01:00;1.40;99.90
26655;DHT22;14278;50.784;4.630;2023-03-01T01:03:26;1.40;99.90
26655;DHT22;14278;50.784;4.630;2023-03-01T01:05:53;1.20;99.90
26655;DHT22;14278;50.784;4.630;2023-03-01T01:08:19;1.10;99.90
26655;DHT22;14278;50.784;4.630;2023-03-01T01:10:46;1.30;99.90
26655;DHT22;14278;50.784;4.630;2023-03-01T01:13:12;0.90;99.90
26655;DHT22;14278;50.784;4.630;2023-03-01T01:15:38;0.90;99.90
26655;DHT22;14278;50.784;4.630;2023-03-01T01:18:04;0.80;99.90
26655;DHT22;14278;50.784;4.630;2023-03-01T01:20:30;0.60;99.90
26655;DHT22;14278;50.784;4.630;2023-03-01T01:22:56;0.50;99.90
26655;DHT22;14278;50.784;4.630;2023-03-01T01:25:22;0.50;99.90
26655;DHT22;14278;50.784;4.630;2023-03-01T01:27:51;0.40;99.90
26655;DHT22;14278;50.784;4.630;2023-03-01T01:30:17;0.40;99.90
26655;DHT22;14278;50.784;4.630;2023-03-01T01:32:43;0.30;99.90
26655;DHT22;14278;50.784;4.630;2023-03-01T01:35:09;0.30;99.90
26655;DHT22;14278;50.784;4.630;2023-03-01T01:37:35;0.20;99.90
26655;DHT22;14278;50.784;4.630;2023-03-01T01:40:03;0.30;99.90
26655;DHT22;14278;50.784;4.630;2023-03-01T01:42:30;0.60;99.90
26655;DHT22;14278;50.784;4.630;2023-03-01T01:47:51;0.50;99.90
26655;DHT22;14278;50.784;4.630;2023-03-01T01:50:18;0.50;99.90
26655;DHT22;14278;50.784;4.630;2023-03-01T01:52:48;0.30;99.90
26655;DHT22;14278;50.784;4.630;2023-03-01T01:55:21;0.20;99.90
26655;DHT22;14278;50.784;4.630;2023-03-01T01:57:58;0.20;99.90
26655;DHT22;14278;50.784;4.630;2023-03-01T02:00:28;0.30;99.90
26655;DHT22;14278;50.784;4.630;2023-03-01T02:03:19;0.20;99.90
26655;DHT22;14278;50.784;4.630;2023-03-01T02:06:04;0.10;99.90
26655;DHT22;14278;50.784;4.630;2023-03-01T02:08:33;0.00;99.90
26655;DHT22;14278;50.784;4.630;2023-03-01T02:11:01;0.00;99.90
26655;DHT22;14278;50.784;4.630;2023-03-01T02:13:30;-0.20;99.90
26655;DHT22;14278;50.784;4.630;2023-03-01T02:15:57;-0.20;99.90
26655;DHT22;14278;50.784;4.630;2023-03-01T02:18:23;-0.20;99.90
26655;DHT22;14278;50.784;4.630;2023-03-01T02:21:11;-0.10;99.90
26655;DHT22;14278;50.784;4.630;2023-03-01T02:23:39;-0.10;99.90
26655;DHT22;14278;50.784;4.630;2023-03-01T02:26:25;-0.10;99.90
26655;DHT22;14278;50.784;4.630;2023-03-01T02:28:54;0.00;99.90
26655;DHT22;14278;50.784;4.630;2023-03-01T02:31:21;0.20;99.90
26655;DHT22;14278;50.784;4.630;2023-03-01T02:34:07;0.30;99.90
26655;DHT22;14278;50.784;4.630;2023-03-01T02:36:40;-0.10;99.90
26655;DHT22;14278;50.784;4.630;2023-03-01T02:39:08;-0.30;99.90
26655;DHT22;14278;50.784;4.630;2023-03-01T02:41:44;-0.60;99.90
26655;DHT22;14278;50.784;4.630;2023-03-01T02:44:11;-0.50;99.90
26655;DHT22;14278;50.784;4.630;2023-03-01T02:46:43;-0.50;99.90
26655;DHT22;14278;50.784;4.630;2023-03-01T02:49:24;-0.50;99.90
26655;DHT22;14278;50.784;4.630;2023-03-01T02:57:22;-0.30;99.90
26655;DHT22;14278;50.784;4.630;2023-03-01T02:59:50;-0.30;99.90
26655;DHT22;14278;50.784;4.630;2023-03-01T03:02:23;-0.30;99.90
26655;DHT22;14278;50.784;4.630;2023-03-01T03:05:06;-0.20;99.90
26655;DHT22;14278;50.784;4.630;2023-03-01T03:07:34;-0.10;99.90
26655;DHT22;14278;50.784;4.630;2023-03-01T03:10:03;-0.30;99.90
26655;DHT22;14278;50.784;4.630;2023-03-01T03:12:29;-0.40;99.90
26655;DHT22;14278;50.784;4.630;2023-03-01T03:14:54;-0.60;99.90
26655;DHT22;14278;50.784;4.630;2023-03-01T03:17:21;-0.60;99.90
26655;DHT22;14278;50.784;4.630;2023-03-01T03:19:46;-0.60;99.90
26655;DHT22;14278;50.784;4.630;2023-03-01T03:22:13;-0.60;99.90
26655;DHT22;14278;50.784;4.630;2023-03-01T03:24:39;-0.50;99.90
26655;DHT22;14278;50.784;4.630;2023-03-01T03:27:05;-0.40;99.90
26655;DHT22;14278;50.784;4.630;2023-03-01T03:29:32;-0.20;99.90
26655;DHT22;14278;50.784;4.630;2023-03-01T03:31:58;-0.40;99.90
26655;DHT22;14278;50.784;4.630;2023-03-01T03:34:25;-0.40;99.90
26655;DHT22;14278;50.784;4.630;2023-03-01T03:36:54;-0.60;99.90
26655;DHT22;14278;50.784;4.630;2023-03-01T03:39:25;-0.80;99.90
26655;DHT22;14278;50.784;4.630;2023-03-01T03:41:53;-0.60;99.90
26655;DHT22;14278;50.784;4.630;2023-03-01T03:44:19;-0.30;99.90
26655;DHT22;14278;50.784;4.630;2023-03-01T03:46:46;-0.10;99.90
26655;DHT22;14278;50.784;4.630;2023-03-01T03:49:11;-0.10;99.90
26655;DHT22;14278;50.784;4.630;2023-03-01T03:51:37;-0.30;99.90
26655;DHT22;14278;50.784;4.630;2023-03-01T03:54:03;-0.70;99.90
26655;DHT22;14278;50.784;4.630;2023-03-01T03:56:29;-0.60;99.90
26655;DHT22;14278;50.784;4.630;2023-03-01T03:58:55;-0.40;99.90
26655;DHT22;14278;50.784;4.630;2023-03-01T04:01:21;-0.40;99.90
26655;DHT22;14278;50.784;4.630;2023-03-01T04:03:47;-0.60;99.90
26655;DHT22;14278;50.784;4.630;2023-03-01T04:06:13;-0.40;99.90
26655;DHT22;14278;50.784;4.630;2023-03-01T04:08:40;-0.40;99.90
26655;DHT22;14278;50.784;4.630;2023-03-01T04:11:06;-0.30;99.90
26655;DHT22;14278;50.784;4.630;2023-03-01T04:13:52;-0.20;99.90
26655;DHT22;14278;50.784;4.630;2023-03-01T04:16:20;-0.30;99.90
26655;DHT22;14278;50.784;4.630;2023-03-01T04:18:46;-0.30;99.90
26655;DHT22;14278;50.784;4.630;2023-03-01T04:21:12;-0.30;99.90
26655;DHT22;14278;50.784;4.630;2023-03-01T04:23:39;-0.40;99.90
26655;DHT22;14278;50.784;4.630;2023-03-01T04:26:06;-0.60;99.90
26655;DHT22;14278;50.784;4.630;2023-03-01T04:28:35;-0.50;99.90
26655;DHT22;14278;50.784;4.630;2023-03-01T04:31:06;-0.50;99.90
26655;DHT22;14278;50.784;4.630;2023-03-01T04:33:42;-0.50;99.90
26655;DHT22;14278;50.784;4.630;2023-03-01T04:36:09;-0.50;99.90
26655;DHT22;14278;50.784;4.630;2023-03-01T04:38:37;-0.40;99.90
26655;DHT22;14278;50.784;4.630;2023-03-01T04:41:07;-0.30;99.90
26655;DHT22;14278;50.784;4.630;2023-03-01T04:43:34;-0.30;99.90
26655;DHT22;14278;50.784;4.630;2023-03-01T04:46:06;-0.50;99.90
26655;DHT22;14278;50.784;4.630;2023-03-01T04:48:35;-0.50;99.90
26655;DHT22;14278;50.784;4.630;2023-03-01T04:51:02;-0.50;99.90
26655;DHT22;14278;50.784;4.630;2023-03-01T04:53:28;-0.60;99.90
26655;DHT22;14278;50.784;4.630;2023-03-01T04:55:55;-0.50;99.90
26655;DHT22;14278;50.784;4.630;2023-03-01T04:58:24;-0.40;99.90
26655;DHT22;14278;50.784;4.630;2023-03-01T05:00:50;-0.40;99.90
26655;DHT22;14278;50.784;4.630;2023-03-01T05:03:16;-0.50;99.90
26655;DHT22;14278;50.784;4.630;2023-03-01T05:05:45;-0.60;99.90
26655;DHT22;14278;50.784;4.630;2023-03-01T05:08:12;-0.70;99.90
26655;DHT22;14278;50.784;4.630;2023-03-01T05:10:48;-0.70;99.90
26655;DHT22;14278;50.784;4.630;2023-03-01T05:13:14;-0.60;99.90
26655;DHT22;14278;50.784;4.630;2023-03-01T05:15:55;-0.70;99.90
26655;DHT22;14278;50.784;4.630;2023-03-01T05:18:21;-0.50;99.90
26655;DHT22;14278;50.784;4.630;2023-03-01T05:20:55;-0.40;99.90
26655;DHT22;14278;50.784;4.630;2023-03-01T05:23:24;-0.50;99.90
26655;DHT22;14278;50.784;4.630;2023-03-01T05:25:50;-0.40;99.90
26655;DHT22;14278;50.784;4.630;2023-03-01T05:28:18;-0.30;99.90
26655;DHT22;14278;50.784;4.630;2023-03-01T05:30:45;-0.30;99.90
26655;DHT22;14278;50.784;4.630;2023-03-01T05:33:12;-0.40;99.90
26655;DHT22;14278;50.784;4.630;2023-03-01T05:35:41;-0.50;99.90
26655;DHT22;14278;50.784;4.630;2023-03-01T05:38:11;-0.80;99.90
26655;DHT22;14278;50.784;4.630;2023-03-01T05:40:42;-0.60;99.90
26655;DHT22;14278;50.784;4.630;2023-03-01T05:43:13;-0.40;99.90
26655;DHT22;14278;50.784;4.630;2023-03-01T05:45:40;-0.50;99.90
26655;DHT22;14278;50.784;4.630;2023-03-01T05:48:07;-0.40;99.90
26655;DHT22;14278;50.784;4.630;2023-03-01T05:50:36;-0.60;99.90
26655;DHT22;14278;50.784;4.630;2023-03-01T05:53:05;-0.50;99.90
26655;DHT22;14278;50.784;4.630;2023-03-01T05:55:33;-0.60;99.90
26655;DHT22;14278;50.784;4.630;2023-03-01T05:58:01;-0.70;99.90
26655;DHT22;14278;50.784;4.630;2023-03-01T06:00:28;-0.90;99.90
26655;DHT22;14278;50.784;4.630;2023-03-01T06:02:55;-0.80;99.90
26655;DHT22;14278;50.784;4.630;2023-03-01T06:05:22;-0.80;99.90
26655;DHT22;14278;50.784;4.630;2023-03-01T06:07:48;-0.60;99.90
26655;DHT22;14278;50.784;4.630;2023-03-01T06:10:15;-0.50;99.90
26655;DHT22;14278;50.784;4.630;2023-03-01T06:12:42;-0.40;99.90
26655;DHT22;14278;50.784;4.630;2023-03-01T06:15:10;-0.50;99.90
26655;DHT22;14278;50.784;4.630;2023-03-01T06:17:38;-0.40;99.90
26655;DHT22;14278;50.784;4.630;2023-03-01T06:20:10;-0.40;99.90
26655;DHT22;14278;50.784;4.630;2023-03-01T06:22:37;-0.50;99.90
26655;DHT22;14278;50.784;4.630;2023-03-01T06:25:03;-0.60;99.90
26655;DHT22;14278;50.784;4.630;2023-03-01T06:27:29;-0.60;99.90
26655;DHT22;14278;50.784;4.630;2023-03-01T06:29:55;-0.70;99.90
26655;DHT22;14278;50.784;4.630;2023-03-01T06:32:21;-0.80;99.90
26655;DHT22;14278;50.784;4.630;2023-03-01T06:34:47;-0.80;99.90
26655;DHT22;14278;50.784;4.630;2023-03-01T06:37:13;-0.80;99.90
26655;DHT22;14278;50.784;4.630;2023-03-01T06:39:39;-0.70;99.90
26655;DHT22;14278;50.784;4.630;2023-03-01T06:42:04;-0.50;99.90
26655;DHT22;14278;50.784;4.630;2023-03-01T06:44:30;-0.20;99.90
26655;DHT22;14278;50.784;4.630;2023-03-01T06:46:56;-0.10;99.90
26655;DHT22;14278;50.784;4.630;2023-03-01T06:49:22;-0.10;99.90
26655;DHT22;14278;50.784;4.630;2023-03-01T06:51:48;-0.20;99.90
26655;DHT22;14278;50.784;4.630;2023-03-01T06:54:14;-0.40;99.90
26655;DHT22;14278;50.784;4.630;2023-03-01T06:56:39;-0.30;99.90
26655;DHT22;14278;50.784;4.630;2023-03-01T06:59:06;0.20;99.90
26655;DHT22;14278;50.784;4.630;2023-03-01T07:01:31;0.60;99.90
26655;DHT22;14278;50.784;4.630;2023-03-01T07:03:57;0.80;99.90
26655;DHT22;14278;50.784;4.630;2023-03-01T07:06:23;1.10;99.90
26655;DHT22;14278;50.784;4.630;2023-03-01T07:08:49;1.20;99.90
26655;DHT22;14278;50.784;4.630;2023-03-01T07:11:16;2.20;99.90
26655;DHT22;14278;50.784;4.630;2023-03-01T07:13:42;3.20;99.90
26655;DHT22;14278;50.784;4.630;2023-03-01T07:16:08;3.80;99.90
26655;DHT22;14278;50.784;4.630;2023-03-01T07:18:33;4.30;99.90
26655;DHT22;14278;50.784;4.630;2023-03-01T07:21:05;4.80;99.90
26655;DHT22;14278;50.784;4.630;2023-03-01T07:23:31;5.30;99.90
26655;DHT22;14278;50.784;4.630;2023-03-01T07:25:57;5.30;99.90
26655;DHT22;14278;50.784;4.630;2023-03-01T07:28:24;5.40;99.90
26655;DHT22;14278;50.784;4.630;2023-03-01T07:30:49;5.90;99.90
26655;DHT22;14278;50.784;4.630;2023-03-01T07:33:16;5.80;99.90
26655;DHT22;14278;50.784;4.630;2023-03-01T07:35:42;6.20;99.90
26655;DHT22;14278;50.784;4.630;2023-03-01T07:38:08;5.50;99.90
26655;DHT22;14278;50.784;4.630;2023-03-01T07:40:34;6.80;99.90
26655;DHT22;14278;50.784;4.630;2023-03-01T07:43:00;7.60;99.90
26655;DHT22;14278;50.784;4.630;2023-03-01T07:45:27;8.50;99.90
26655;DHT22;14278;50.784;4.630;2023-03-01T07:47:54;8.90;99.90
26655;DHT22;14278;50.784;4.630;2023-03-01T07:50:21;8.60;99.90
26655;DHT22;14278;50.784;4.630;2023-03-01T07:52:48;8.20;99.90
26655;DHT22;14278;50.784;4.630;2023-03-01T07:55:14;6.90;99.90
26655;DHT22;14278;50.784;4.630;2023-03-01T07:57:40;7.30;99.90
26655;DHT22;14278;50.784;4.630;2023-03-01T08:00:08;8.50;99.90
26655;DHT22;14278;50.784;4.630;2023-03-01T08:02:35;8.70;99.90
26655;DHT22;14278;50.784;4.630;2023-03-01T08:05:01;8.20;99.90
26655;DHT22;14278;50.784;4.630;2023-03-01T08:07:26;7.40;99.90
26655;DHT22;14278;50.784;4.630;2023-03-01T08:09:52;5.70;99.90
26655;DHT22;14278;50.784;4.630;2023-03-01T08:12:18;6.50;99.90
26655;DHT22;14278;50.784;4.630;2023-03-01T08:14:44;6.50;99.90
26655;DHT22;14278;50.784;4.630;2023-03-01T08:17:12;5.10;99.90
26655;DHT22;14278;50.784;4.630;2023-03-01T08:19:38;5.00;99.90
26655;DHT22;14278;50.784;4.630;2023-03-01T08:22:04;3.90;99.90
26655;DHT22;14278;50.784;4.630;2023-03-01T08:24:30;4.00;99.90
26655;DHT22;14278;50.784;4.630;2023-03-01T08:26:56;2.70;99.90
26655;DHT22;14278;50.784;4.630;2023-03-01T08:29:22;2.60;99.90
26655;DHT22;14278;50.784;4.630;2023-03-01T08:31:50;3.00;99.90
26655;DHT22;14278;50.784;4.630;2023-03-01T08:34:17;2.80;99.90
26655;DHT22;14278;50.784;4.630;2023-03-01T08:36:45;3.00;99.90
26655;DHT22;14278;50.784;4.630;2023-03-01T08:39:14;3.20;99.90
26655;DHT22;14278;50.784;4.630;2023-03-01T08:41:40;4.40;99.90
26655;DHT22;14278;50.784;4.630;2023-03-01T08:44:07;5.10;99.90
26655;DHT22;14278;50.784;4.630;2023-03-01T08:46:38;4.70;99.90
26655;DHT22;14278;50.784;4.630;2023-03-01T08:49:05;4.60;99.90
26655;DHT22;14278;50.784;4.630;2023-03-01T08:51:32;3.70;99.90
26655;DHT22;14278;50.784;4.630;2023-03-01T08:54:06;3.10;99.90
26655;DHT22;14278;50.784;4.630;2023-03-01T08:56:32;3.50;99.90
26655;DHT22;14278;50.784;4.630;2023-03-01T08:58:59;3.80;99.90
26655;DHT22;14278;50.784;4.630;2023-03-01T09:01:25;4.00;99.90
26655;DHT22;14278;50.784;4.630;2023-03-01T09:03:51;3.80;99.90
26655;DHT22;14278;50.784;4.630;2023-03-01T09:06:17;4.10;99.90
26655;DHT22;14278;50.784;4.630;2023-03-01T09:08:46;3.80;99.90
26655;DHT22;14278;50.784;4.630;2023-03-01T09:11:15;3.70;99.90
26655;DHT22;14278;50.784;4.630;2023-03-01T09:13:42;3.50;99.90
26655;DHT22;14278;50.784;4.630;2023-03-01T09:16:09;3.40;99.90
26655;DHT22;14278;50.784;4.630;2023-03-01T09:18:36;3.40;99.90
26655;DHT22;14278;50.784;4.630;2023-03-01T09:21:12;3.60;99.90
26655;DHT22;14278;50.784;4.630;2023-03-01T09:23:44;4.10;99.90
26655;DHT22;14278;50.784;4.630;2023-03-01T09:26:13;5.00;99.90
26655;DHT22;14278;50.784;4.630;2023-03-01T09:28:40;6.50;99.90
26655;DHT22;14278;50.784;4.630;2023-03-01T09:31:09;6.60;99.90
26655;DHT22;14278;50.784;4.630;2023-03-01T09:33:38;6.70;99.90
26655;DHT22;14278;50.784;4.630;2023-03-01T09:36:06;7.50;99.90
26655;DHT22;14278;50.784;4.630;2023-03-01T09:38:33;8.50;99.90
26655;DHT22;14278;50.784;4.630;2023-03-01T09:41:00;6.50;99.90
26655;DHT22;14278;50.784;4.630;2023-03-01T09:43:49;6.30;99.90
26655;DHT22;14278;50.784;4.630;2023-03-01T09:46:22;7.00;99.90
26655;DHT22;14278;50.784;4.630;2023-03-01T09:48:51;6.30;99.90
26655;DHT22;14278;50.784;4.630;2023-03-01T09:51:31;6.70;99.90
26655;DHT22;14278;50.784;4.630;2023-03-01T09:53:58;6.40;99.90
26655;DHT22;14278;50.784;4.630;2023-03-01T10:01:33;5.60;99.90
26655;DHT22;14278;50.784;4.630;2023-03-01T10:04:32;5.60;99.90
26655;DHT22;14278;50.784;4.630;2023-03-01T10:09:44;6.10;99.90
26655;DHT22;14278;50.784;4.630;2023-03-01T10:12:16;7.40;99.90
26655;DHT22;14278;50.784;4.630;2023-03-01T10:17:48;6.20;99.90
26655;DHT22;14278;50.784;4.630;2023-03-01T10:20:40;5.60;99.90
26655;DHT22;14278;50.784;4.630;2023-03-01T10:23:09;5.40;99.90
26655;DHT22;14278;50.784;4.630;2023-03-01T10:29:05;4.50;99.90
26655;DHT22;14278;50.784;4.630;2023-03-01T10:31:24;5.00;99.90
26655;DHT22;14278;50.784;4.630;2023-03-01T10:34:02;6.10;99.90
26655;DHT22;14278;50.784;4.630;2023-03-01T10:36:32;6.90;99.90
26655;DHT22;14278;50.784;4.630;2023-03-01T10:38:59;6.60;99.90
26655;DHT22;14278;50.784;4.630;2023-03-01T10:41:26;6.40;99.90
26655;DHT22;14278;50.784;4.630;2023-03-01T10:43:57;6.10;99.90
26655;DHT22;14278;50.784;4.630;2023-03-01T10:46:41;6.10;99.90
26655;DHT22;14278;50.784;4.630;2023-03-01T10:49:19;6.30;99.90
26655;DHT22;14278;50.784;4.630;2023-03-01T10:51:50;6.30;99.90
26655;DHT22;14278;50.784;4.630;2023-03-01T10:54:29;6.20;99.90
26655;DHT22;14278;50.784;4.630;2023-03-01T10:56:57;6.10;99.90
26655;DHT22;14278;50.784;4.630;2023-03-01T11:02:23;7.00;99.90
26655;DHT22;14278;50.784;4.630;2023-03-01T11:08:00;7.40;99.90
26655;DHT22;14278;50.784;4.630;2023-03-01T11:10:35;7.20;99.90
26655;DHT22;14278;50.784;4.630;2023-03-01T11:13:19;6.90;99.90
26655;DHT22;14278;50.784;4.630;2023-03-01T11:16:36;6.90;99.90
26655;DHT22;14278;50.784;4.630;2023-03-01T11:21:39;9.20;99.90
26655;DHT22;14278;50.784;4.630;2023-03-01T11:24:11;7.80;99.90
26655;DHT22;14278;50.784;4.630;2023-03-01T11:26:41;9.40;99.90
26655;DHT22;14278;50.784;4.630;2023-03-01T11:29:17;8.50;99.90
26655;DHT22;14278;50.784;4.630;2023-03-01T11:31:48;8.60;99.90
26655;DHT22;14278;50.784;4.630;2023-03-01T11:34:38;8.60;99.90
26655;DHT22;14278;50.784;4.630;2023-03-01T11:37:13;8.90;99.90
26655;DHT22;14278;50.784;4.630;2023-03-01T11:39:49;9.90;99.90
26655;DHT22;14278;50.784;4.630;2023-03-01T11:45:05;10.60;99.90
26655;DHT22;14278;50.784;4.630;2023-03-01T11:47:42;9.60;99.90
26655;DHT22;14278;50.784;4.630;2023-03-01T11:50:25;9.40;99.90
26655;DHT22;14278;50.784;4.630;2023-03-01T11:53:07;9.10;99.90
26655;DHT22;14278;50.784;4.630;2023-03-01T12:02:27;10.00;99.90
26655;DHT22;14278;50.784;4.630;2023-03-01T12:26:06;10.20;99.90
26655;DHT22;14278;50.784;4.630;2023-03-01T12:31:40;10.40;99.90
26655;DHT22;14278;50.784;4.630;2023-03-01T12:40:03;9.00;99.90
26655;DHT22;14278;50.784;4.630;2023-03-01T12:51:30;9.90;99.90
26655;DHT22;14278;50.784;4.630;2023-03-01T12:53:58;10.40;99.90
26655;DHT22;14278;50.784;4.630;2023-03-01T12:56:29;10.60;99.90
26655;DHT22;14278;50.784;4.630;2023-03-01T13:02:17;10.70;99.90
26655;DHT22;14278;50.784;4.630;2023-03-01T13:05:05;9.40;99.90
26655;DHT22;14278;50.784;4.630;2023-03-01T13:07:58;8.40;99.90
26655;DHT22;14278;50.784;4.630;2023-03-01T13:10:34;8.50;99.90
26655;DHT22;14278;50.784;4.630;2023-03-01T13:13:18;8.20;99.90
26655;DHT22;14278;50.784;4.630;2023-03-01T13:15:45;8.30;99.90
26655;DHT22;14278;50.784;4.630;2023-03-01T13:31:26;7.30;99.90
26655;DHT22;14278;50.784;4.630;2023-03-01T13:34:00;7.40;99.90
26655;DHT22;14278;50.784;4.630;2023-03-01T13:49:50;7.20;99.90
26655;DHT22;14278;50.784;4.630;2023-03-01T13:52:44;7.30;99.90
26655;DHT22;14278;50.784;4.630;2023-03-01T13:57:48;7.10;99.90
26655;DHT22;14278;50.784;4.630;2023-03-01T14:00:37;7.10;99.90
26655;DHT22;14278;50.784;4.630;2023-03-01T14:05:58;7.30;99.90
26655;DHT22;14278;50.784;4.630;2023-03-01T14:08:26;7.20;99.90
26655;DHT22;14278;50.784;4.630;2023-03-01T14:11:20;7.40;99.90
26655;DHT22;14278;50.784;4.630;2023-03-01T14:16:46;8.00;99.90
26655;DHT22;14278;50.784;4.630;2023-03-01T14:21:42;7.70;99.90
26655;DHT22;14278;50.784;4.630;2023-03-01T14:24:17;7.30;99.90
26655;DHT22;14278;50.784;4.630;2023-03-01T14:26:44;7.20;99.90
26655;DHT22;14278;50.784;4.630;2023-03-01T14:29:37;7.30;99.90
26655;DHT22;14278;50.784;4.630;2023-03-01T14:32:20;7.20;99.90
26655;DHT22;14278;50.784;4.630;2023-03-01T14:34:50;7.10;99.90
26655;DHT22;14278;50.784;4.630;2023-03-01T14:39:51;7.50;99.90
26655;DHT22;14278;50.784;4.630;2023-03-01T14:42:18;7.40;99.90
26655;DHT22;14278;50.784;4.630;2023-03-01T14:44:47;7.50;99.90
26655;DHT22;14278;50.784;4.630;2023-03-01T14:47:19;7.20;99.90
26655;DHT22;14278;50.784;4.630;2023-03-01T14:49:54;7.20;99.90
26655;DHT22;14278;50.784;4.630;2023-03-01T14:52:23;7.30;99.90
26655;DHT22;14278;50.784;4.630;2023-03-01T14:54:54;7.50;99.90
26655;DHT22;14278;50.784;4.630;2023-03-01T14:57:23;7.40;99.90
26655;DHT22;14278;50.784;4.630;2023-03-01T14:59:54;7.30;99.90
26655;DHT22;14278;50.784;4.630;2023-03-01T15:02:24;7.00;99.90
26655;DHT22;14278;50.784;4.630;2023-03-01T15:05:00;7.00;99.90
26655;DHT22;14278;50.784;4.630;2023-03-01T15:07:30;7.10;99.90
26655;DHT22;14278;50.784;4.630;2023-03-01T15:09:57;7.20;99.90
26655;DHT22;14278;50.784;4.630;2023-03-01T15:14:53;6.90;99.90
26655;DHT22;14278;50.784;4.630;2023-03-01T15:20:00;7.30;99.90
26655;DHT22;14278;50.784;4.630;2023-03-01T15:22:28;7.20;99.90
26655;DHT22;14278;50.784;4.630;2023-03-01T15:24:54;7.20;99.90
26655;DHT22;14278;50.784;4.630;2023-03-01T15:27:22;7.50;99.90
26655;DHT22;14278;50.784;4.630;2023-03-01T15:29:51;7.40;99.90
26655;DHT22;14278;50.784;4.630;2023-03-01T15:32:36;7.30;99.90
26655;DHT22;14278;50.784;4.630;2023-03-01T15:35:37;7.30;99.90
26655;DHT22;14278;50.784;4.630;2023-03-01T15:38:22;7.10;99.90
26655;DHT22;14278;50.784;4.630;2023-03-01T15:40:49;7.00;99.90
26655;DHT22;14278;50.784;4.630;2023-03-01T15:43:39;6.90;99.90
26655;DHT22;14278;50.784;4.630;2023-03-01T15:46:05;6.80;99.90
26655;DHT22;14278;50.784;4.630;2023-03-01T15:48:38;6.80;99.90
26655;DHT22;14278;50.784;4.630;2023-03-01T15:51:03;6.70;99.90
26655;DHT22;14278;50.784;4.630;2023-03-01T15:53:30;6.70;99.90
26655;DHT22;14278;50.784;4.630;2023-03-01T15:55:56;6.60;99.90
26655;DHT22;14278;50.784;4.630;2023-03-01T15:58:24;6.50;99.90
26655;DHT22;14278;50.784;4.630;2023-03-01T16:00:51;6.70;99.90
26655;DHT22;14278;50.784;4.630;2023-03-01T16:03:22;6.50;99.90
26655;DHT22;14278;50.784;4.630;2023-03-01T16:05:51;6.70;99.90
26655;DHT22;14278;50.784;4.630;2023-03-01T16:08:18;6.70;99.90
26655;DHT22;14278;50.784;4.630;2023-03-01T16:10:44;6.70;99.90
26655;DHT22;14278;50.784;4.630;2023-03-01T16:13:14;6.60;99.90
26655;DHT22;14278;50.784;4.630;2023-03-01T16:15:40;6.70;99.90
26655;DHT22;14278;50.784;4.630;2023-03-01T16:18:07;6.60;99.90
26655;DHT22;14278;50.784;4.630;2023-03-01T16:20:36;6.50;99.90
26655;DHT22;14278;50.784;4.630;2023-03-01T16:23:04;6.30;99.90
26655;DHT22;14278;50.784;4.630;2023-03-01T16:25:31;6.30;99.90
26655;DHT22;14278;50.784;4.630;2023-03-01T16:27:58;6.60;99.90
26655;DHT22;14278;50.784;4.630;2023-03-01T16:30:26;6.40;99.90
26655;DHT22;14278;50.784;4.630;2023-03-01T16:32:53;6.30;99.90
26655;DHT22;14278;50.784;4.630;2023-03-01T16:35:20;6.30;99.90
26655;DHT22;14278;50.784;4.630;2023-03-01T16:37:47;6.40;99.90
26655;DHT22;14278;50.784;4.630;2023-03-01T16:40:21;6.10;99.90
26655;DHT22;14278;50.784;4.630;2023-03-01T16:42:48;6.20;99.90
26655;DHT22;14278;50.784;4.630;2023-03-01T16:45:14;6.10;99.90
26655;DHT22;14278;50.784;4.630;2023-03-01T16:47:39;6.10;99.90
26655;DHT22;14278;50.784;4.630;2023-03-01T16:50:06;6.10;99.90
26655;DHT22;14278;50.784;4.630;2023-03-01T16:52:33;6.40;99.90
26655;DHT22;14278;50.784;4.630;2023-03-01T16:55:00;6.10;99.90
26655;DHT22;14278;50.784;4.630;2023-03-01T16:57:25;6.00;99.90
26655;DHT22;14278;50.784;4.630;2023-03-01T16:59:52;5.80;99.90
26655;DHT22;14278;50.784;4.630;2023-03-01T17:02:19;5.90;99.90
26655;DHT22;14278;50.784;4.630;2023-03-01T17:04:50;6.00;99.90
26655;DHT22;14278;50.784;4.630;2023-03-01T17:07:17;5.80;99.90
26655;DHT22;14278;50.784;4.630;2023-03-01T17:09:42;5.70;99.90
26655;DHT22;14278;50.784;4.630;2023-03-01T17:12:11;5.60;99.90
26655;DHT22;14278;50.784;4.630;2023-03-01T17:14:37;5.60;99.90
26655;DHT22;14278;50.784;4.630;2023-03-01T17:17:03;5.70;99.90
26655;DHT22;14278;50.784;4.630;2023-03-01T17:19:29;5.70;99.90
26655;DHT22;14278;50.784;4.630;2023-03-01T17:21:57;5.70;99.90
26655;DHT22;14278;50.784;4.630;2023-03-01T17:24:23;5.90;99.90
26655;DHT22;14278;50.784;4.630;2023-03-01T17:26:49;5.80;99.90
26655;DHT22;14278;50.784;4.630;2023-03-01T17:29:15;5.80;99.90
26655;DHT22;14278;50.784;4.630;2023-03-01T17:31:43;5.80;99.90
26655;DHT22;14278;50.784;4.630;2023-03-01T17:34:09;5.50;99.90
26655;DHT22;14278;50.784;4.630;2023-03-01T17:36:34;5.40;99.90
26655;DHT22;14278;50.784;4.630;2023-03-01T17:39:06;5.10;99.90
26655;DHT22;14278;50.784;4.630;2023-03-01T17:41:31;5.20;99.90
26655;DHT22;14278;50.784;4.630;2023-03-01T17:43:57;5.10;99.90
26655;DHT22;14278;50.784;4.630;2023-03-01T17:46:23;5.50;99.90
26655;DHT22;14278;50.784;4.630;2023-03-01T17:48:50;5.40;99.90
26655;DHT22;14278;50.784;4.630;2023-03-01T17:51:15;5.30;99.90
26655;DHT22;14278;50.784;4.630;2023-03-01T17:53:41;5.10;99.90
26655;DHT22;14278;50.784;4.630;2023-03-01T17:56:07;5.00;99.90
26655;DHT22;14278;50.784;4.630;2023-03-01T17:58:34;4.90;99.90
26655;DHT22;14278;50.784;4.630;2023-03-01T18:01:10;4.90;99.90
26655;DHT22;14278;50.784;4.630;2023-03-01T18:03:38;4.90;99.90
26655;DHT22;14278;50.784;4.630;2023-03-01T18:06:16;5.10;99.90